PWSweather.com
Personal Weather Stations
Station Observations
WISCHPK61
Green Bay Schmitt Park, Green Bay, WI 54311

Green Bay Schmitt ParkGreen Bay, WI 54311

Lat: 44.514277, Lon: -87.935067

Elevation: 735

Station Type: Acu Rite Pro Weather Center model 02032C

http://greenbayweathercam.com

High Low Average
Temperature 54.2°F12.3°C 16.9°F-8.4°C 32.8°F0.4°C
Dew Point 32.4°F0.2°C 15.3°F-9.3°C 24.6°F-4.1°C
Winds 4.6 mph 7.4 kmh Calm Calm 2.0 mph SW3.2 kmh SW
Wind Gusts 8.1 mph13.0 kmh -- 2.0 mph3.2 kmh
Humidity 96% 40% 75%
Pressure 29.43 in996.6 mb 29.01 in982.4 mb -
Precipitation 0.00 in0.0 mm - -
Hour Temp Dew Point Humidity Winds Wind Gusts Pressure Precip Precip Rate Daily Precip Total
12:00 AM 17.8°F-7.9°C 15.9°F-8.9°C 92% Calm Calm -- 29.45 in997.3 mb - 0.00 in0.0 mm 0.00 in0.0 mm
12:15 AM 17.8°F-7.9°C 16.1°F-8.8°C 93% Calm Calm -- 29.44 in997.0 mb - 0.00 in0.0 mm 0.00 in0.0 mm
12:30 AM 17.6°F-8.0°C 15.9°F-8.9°C 93% Calm Calm -- 29.44 in997.0 mb - 0.00 in0.0 mm 0.00 in0.0 mm
12:45 AM 17.2°F-8.2°C 15.5°F-9.2°C 93% Calm Calm -- 29.44 in997.0 mb - 0.00 in0.0 mm 0.00 in0.0 mm
01:00 AM 17.0°F-8.3°C 15.3°F-9.3°C 93% Calm Calm -- 29.43 in996.6 mb - 0.00 in0.0 mm 0.00 in0.0 mm
01:15 AM 16.9°F-8.4°C 15.5°F-9.2°C 94% Calm Calm -- 29.43 in996.6 mb - 0.00 in0.0 mm 0.00 in0.0 mm
01:30 AM 17.1°F-8.3°C 15.7°F-9.1°C 94% Calm Calm -- 29.43 in996.6 mb - 0.00 in0.0 mm 0.00 in0.0 mm
01:45 AM 17.1°F-8.3°C 15.9°F-8.9°C 95% Calm Calm -- 29.43 in996.6 mb - 0.00 in0.0 mm 0.00 in0.0 mm
02:00 AM 17.2°F-8.2°C 16.0°F-8.9°C 95% Calm Calm -- 29.43 in996.6 mb - 0.00 in0.0 mm 0.00 in0.0 mm
02:15 AM 17.4°F-8.1°C 16.2°F-8.8°C 95% Calm Calm -- 29.42 in996.3 mb - 0.00 in0.0 mm 0.00 in0.0 mm
02:30 AM 17.8°F-7.9°C 16.9°F-8.4°C 96% Calm Calm -- 29.42 in996.3 mb - 0.00 in0.0 mm 0.00 in0.0 mm
02:45 AM 17.6°F-8.0°C 16.4°F-8.7°C 95% Calm Calm -- 29.41 in995.9 mb - 0.00 in0.0 mm 0.00 in0.0 mm
03:00 AM 18.0°F-7.8°C 17.1°F-8.3°C 96% Calm Calm -- 29.40 in995.6 mb - 0.00 in0.0 mm 0.00 in0.0 mm
03:15 AM 18.3°F-7.6°C 16.9°F-8.4°C 94% Calm Calm -- 29.40 in995.6 mb - 0.00 in0.0 mm 0.00 in0.0 mm
03:30 AM 18.7°F-7.4°C 16.8°F-8.4°C 92% Calm Calm -- 29.40 in995.6 mb - 0.00 in0.0 mm 0.00 in0.0 mm
03:45 AM 18.7°F-7.4°C 17.0°F-8.3°C 93% Calm Calm -- 29.39 in995.3 mb - 0.00 in0.0 mm 0.00 in0.0 mm
04:00 AM 18.9°F-7.3°C 17.5°F-8.1°C 94% Calm Calm -- 29.39 in995.3 mb - 0.00 in0.0 mm 0.00 in0.0 mm
04:15 AM 19.0°F-7.2°C 17.6°F-8.0°C 94% Calm Calm -- 29.38 in994.9 mb - 0.00 in0.0 mm 0.00 in0.0 mm
04:30 AM 19.0°F-7.2°C 17.6°F-8.0°C 94% Calm Calm -- 29.37 in994.6 mb - 0.00 in0.0 mm 0.00 in0.0 mm
04:45 AM 19.4°F-7.0°C 18.2°F-7.7°C 95% Calm Calm -- 29.37 in994.6 mb - 0.00 in0.0 mm 0.00 in0.0 mm
05:00 AM 19.6°F-6.9°C 18.2°F-7.7°C 94% Calm Calm -- 29.36 in994.2 mb - 0.00 in0.0 mm 0.00 in0.0 mm
05:15 AM 19.6°F-6.9°C 18.2°F-7.7°C 94% Calm Calm -- 29.35 in993.9 mb - 0.00 in0.0 mm 0.00 in0.0 mm
05:30 AM 19.6°F-6.9°C 18.2°F-7.7°C 94% Calm Calm -- 29.35 in993.9 mb - 0.00 in0.0 mm 0.00 in0.0 mm
05:45 AM 19.8°F-6.8°C 18.4°F-7.6°C 94% Calm Calm -- 29.34 in993.6 mb - 0.00 in0.0 mm 0.00 in0.0 mm
06:00 AM 19.8°F-6.8°C 18.6°F-7.4°C 95% Calm Calm -- 29.34 in993.6 mb - 0.00 in0.0 mm 0.00 in0.0 mm
06:15 AM 20.1°F-6.6°C 18.9°F-7.3°C 95% Calm Calm -- 29.33 in993.2 mb - 0.00 in0.0 mm 0.00 in0.0 mm
06:30 AM 20.1°F-6.6°C 18.9°F-7.3°C 95% 2.3 mph S3.7 kmh S 2.3 mph3.7 kmh 29.32 in992.9 mb - 0.00 in0.0 mm 0.00 in0.0 mm
06:45 AM 20.1°F-6.6°C 18.9°F-7.3°C 95% 1.2 mph WSW1.9 kmh WSW 2.3 mph3.7 kmh 29.31 in992.6 mb - 0.00 in0.0 mm 0.00 in0.0 mm
07:00 AM 20.3°F-6.5°C 19.1°F-7.2°C 95% Calm Calm -- 29.30 in992.2 mb - 0.00 in0.0 mm 0.00 in0.0 mm
07:15 AM 20.3°F-6.5°C 18.8°F-7.3°C 94% Calm Calm -- 29.30 in992.2 mb - 0.00 in0.0 mm 0.00 in0.0 mm
07:30 AM 20.3°F-6.5°C 18.8°F-7.3°C 94% Calm Calm -- 29.30 in992.2 mb - 0.00 in0.0 mm 0.00 in0.0 mm
07:45 AM 20.7°F-6.3°C 19.0°F-7.2°C 93% Calm Calm 1.2 mph1.9 kmh 29.30 in992.2 mb - 0.00 in0.0 mm 0.00 in0.0 mm
08:00 AM 21.0°F-6.1°C 19.3°F-7.1°C 93% Calm Calm -- 29.29 in991.9 mb - 0.00 in0.0 mm 0.00 in0.0 mm
08:15 AM 21.9°F-5.6°C 19.7°F-6.8°C 91% Calm Calm -- 29.29 in991.9 mb - 0.00 in0.0 mm 0.00 in0.0 mm
08:30 AM 22.8°F-5.1°C 20.6°F-6.3°C 91% Calm Calm -- 29.29 in991.9 mb - 0.00 in0.0 mm 0.00 in0.0 mm
08:45 AM 23.4°F-4.8°C 20.6°F-6.3°C 89% Calm Calm -- 29.29 in991.9 mb - 0.00 in0.0 mm 0.00 in0.0 mm
09:00 AM 24.8°F-4.0°C 21.2°F-6.0°C 86% Calm Calm -- 29.27 in991.2 mb - 0.00 in0.0 mm 0.00 in0.0 mm
09:15 AM 26.4°F-3.1°C 22.2°F-5.4°C 84% Calm Calm 1.2 mph1.9 kmh 29.27 in991.2 mb - 0.00 in0.0 mm 0.00 in0.0 mm
09:30 AM 29.0°F-1.7°C 23.3°F-4.8°C 79% 2.3 mph WNW3.7 kmh WNW 2.3 mph3.7 kmh 29.26 in990.9 mb - 0.00 in0.0 mm 0.00 in0.0 mm
09:45 AM 31.8°F-0.1°C 24.1°F-4.4°C 73% 2.3 mph S3.7 kmh S 4.6 mph7.4 kmh 29.26 in990.9 mb - 0.00 in0.0 mm 0.00 in0.0 mm
10:00 AM 33.3°F0.7°C 25.2°F-3.8°C 72% 2.3 mph NW3.7 kmh NW 2.3 mph3.7 kmh 29.25 in990.5 mb - 0.00 in0.0 mm 0.00 in0.0 mm
10:15 AM 35.2°F1.8°C 26.1°F-3.3°C 69% 1.2 mph SW1.9 kmh SW 1.2 mph1.9 kmh 29.23 in989.8 mb - 0.00 in0.0 mm 0.00 in0.0 mm
10:30 AM 36.5°F2.5°C 26.9°F-2.8°C 68% 1.2 mph N1.9 kmh N 2.3 mph3.7 kmh 29.23 in989.8 mb - 0.00 in0.0 mm 0.00 in0.0 mm
10:45 AM 36.5°F2.5°C 25.8°F-3.4°C 65% 4.6 mph SSW7.4 kmh SSW 4.6 mph7.4 kmh 29.22 in989.5 mb - 0.00 in0.0 mm 0.00 in0.0 mm
11:00 AM 37.4°F3.0°C 26.7°F-2.9°C 65% 2.3 mph E3.7 kmh E 3.5 mph5.6 kmh 29.21 in989.2 mb - 0.00 in0.0 mm 0.00 in0.0 mm
11:15 AM 39.6°F4.2°C 27.7°F-2.4°C 62% 3.5 mph ENE5.6 kmh ENE 4.6 mph7.4 kmh 29.19 in988.5 mb - 0.00 in0.0 mm 0.00 in0.0 mm
11:30 AM 40.5°F4.7°C 27.7°F-2.4°C 60% 2.3 mph E3.7 kmh E 5.8 mph9.3 kmh 29.18 in988.1 mb - 0.00 in0.0 mm 0.00 in0.0 mm
11:45 AM 42.1°F5.6°C 28.4°F-2.0°C 58% 3.5 mph SE5.6 kmh SE 4.6 mph7.4 kmh 29.17 in987.8 mb - 0.00 in0.0 mm 0.00 in0.0 mm
12:00 PM 43.2°F6.2°C 28.1°F-2.2°C 55% 2.3 mph SSW3.7 kmh SSW 3.5 mph5.6 kmh 29.16 in987.5 mb - 0.00 in0.0 mm 0.00 in0.0 mm
12:15 PM 43.4°F6.3°C 27.4°F-2.6°C 53% 4.6 mph W7.4 kmh W 4.6 mph7.4 kmh 29.13 in986.5 mb - 0.00 in0.0 mm 0.00 in0.0 mm
12:30 PM 43.9°F6.6°C 28.4°F-2.0°C 54% 3.5 mph S5.6 kmh S 4.6 mph7.4 kmh 29.12 in986.1 mb - 0.00 in0.0 mm 0.00 in0.0 mm
12:45 PM 45.1°F7.3°C 27.6°F-2.4°C 50% 4.6 mph NNW7.4 kmh NNW 5.8 mph9.3 kmh 29.11 in985.8 mb - 0.00 in0.0 mm 0.00 in0.0 mm
01:00 PM 46.4°F8.0°C 29.3°F-1.5°C 51% 4.6 mph NNW7.4 kmh NNW 5.8 mph9.3 kmh 29.10 in985.4 mb - 0.00 in0.0 mm 0.00 in0.0 mm
01:15 PM 47.2°F8.4°C 28.0°F-2.2°C 47% 3.5 mph WSW5.6 kmh WSW 3.5 mph5.6 kmh 29.09 in985.1 mb - 0.00 in0.0 mm 0.00 in0.0 mm
01:30 PM 48.1°F8.9°C 29.4°F-1.4°C 48% 3.5 mph SSE5.6 kmh SSE 4.6 mph7.4 kmh 29.08 in984.8 mb - 0.00 in0.0 mm 0.00 in0.0 mm
01:45 PM 49.8°F9.9°C 31.4°F-0.3°C 49% 3.5 mph SSE5.6 kmh SSE 3.5 mph5.6 kmh 29.07 in984.4 mb - 0.00 in0.0 mm 0.00 in0.0 mm
02:00 PM 50.9°F10.5°C 32.4°F0.2°C 49% 2.3 mph W3.7 kmh W 2.3 mph3.7 kmh 29.06 in984.1 mb - 0.00 in0.0 mm 0.00 in0.0 mm
02:15 PM 52.2°F11.2°C 30.9°F-0.6°C 44% 3.5 mph SE5.6 kmh SE 4.6 mph7.4 kmh 29.05 in983.7 mb - 0.00 in0.0 mm 0.00 in0.0 mm
02:30 PM 52.5°F11.4°C 30.1°F-1.1°C 42% 3.5 mph NNW5.6 kmh NNW 5.8 mph9.3 kmh 29.04 in983.4 mb - 0.00 in0.0 mm 0.00 in0.0 mm
02:45 PM 52.0°F11.1°C 28.4°F-2.0°C 40% 3.5 mph WNW5.6 kmh WNW 8.1 mph13.0 kmh 29.04 in983.4 mb - 0.00 in0.0 mm 0.00 in0.0 mm
03:00 PM 54.2°F12.3°C 30.3°F-0.9°C 40% 2.3 mph NW3.7 kmh NW 4.6 mph7.4 kmh 29.03 in983.1 mb - 0.00 in0.0 mm 0.00 in0.0 mm
03:15 PM 53.2°F11.8°C 30.1°F-1.1°C 41% 3.5 mph NNW5.6 kmh NNW 6.9 mph11.1 kmh 29.03 in983.1 mb - 0.00 in0.0 mm 0.00 in0.0 mm
03:30 PM 52.5°F11.4°C 29.5°F-1.4°C 41% 4.6 mph NW7.4 kmh NW 4.6 mph7.4 kmh 29.02 in982.7 mb - 0.00 in0.0 mm 0.00 in0.0 mm
03:45 PM 49.4°F9.7°C 29.0°F-1.7°C 45% 3.5 mph NW5.6 kmh NW 4.6 mph7.4 kmh 29.02 in982.7 mb - 0.00 in0.0 mm 0.00 in0.0 mm
04:00 PM 48.6°F9.2°C 29.3°F-1.5°C 47% 4.6 mph W7.4 kmh W 3.5 mph5.6 kmh 29.01 in982.4 mb - 0.00 in0.0 mm 0.00 in0.0 mm
04:15 PM 48.6°F9.2°C 29.8°F-1.2°C 48% 3.5 mph NW5.6 kmh NW 5.8 mph9.3 kmh 29.01 in982.4 mb - 0.00 in0.0 mm 0.00 in0.0 mm
04:30 PM 49.1°F9.5°C 30.7°F-0.7°C 49% 3.5 mph NNW5.6 kmh NNW 4.6 mph7.4 kmh 29.01 in982.4 mb - 0.00 in0.0 mm 0.00 in0.0 mm
04:45 PM 46.1°F7.8°C 29.0°F-1.7°C 51% 3.5 mph NNW5.6 kmh NNW 4.6 mph7.4 kmh 29.01 in982.4 mb - 0.00 in0.0 mm 0.00 in0.0 mm
05:00 PM 45.5°F7.5°C 29.8°F-1.2°C 54% 3.5 mph NNW5.6 kmh NNW 4.6 mph7.4 kmh 29.01 in982.4 mb - 0.00 in0.0 mm 0.00 in0.0 mm
05:15 PM 44.3°F6.8°C 29.6°F-1.3°C 56% 3.5 mph N5.6 kmh N 3.5 mph5.6 kmh 29.01 in982.4 mb - 0.00 in0.0 mm 0.00 in0.0 mm
05:30 PM 43.5°F6.4°C 28.8°F-1.8°C 56% 3.5 mph NNE5.6 kmh NNE 4.6 mph7.4 kmh 29.01 in982.4 mb - 0.00 in0.0 mm 0.00 in0.0 mm
05:45 PM 43.0°F6.1°C 29.2°F-1.6°C 58% 2.3 mph NNW3.7 kmh NNW 3.5 mph5.6 kmh 29.02 in982.7 mb - 0.00 in0.0 mm 0.00 in0.0 mm
06:00 PM 42.8°F6.0°C 29.0°F-1.7°C 58% 3.5 mph NNW5.6 kmh NNW 3.5 mph5.6 kmh 29.02 in982.7 mb - 0.00 in0.0 mm 0.00 in0.0 mm
06:15 PM 42.3°F5.7°C 28.6°F-1.9°C 58% 3.5 mph NW5.6 kmh NW 3.5 mph5.6 kmh 29.02 in982.7 mb - 0.00 in0.0 mm 0.00 in0.0 mm
06:30 PM 41.9°F5.5°C 28.6°F-1.9°C 59% 2.3 mph NW3.7 kmh NW 2.3 mph3.7 kmh 29.02 in982.7 mb - 0.00 in0.0 mm 0.00 in0.0 mm
06:45 PM 41.0°F5.0°C 27.8°F-2.3°C 59% 2.3 mph S3.7 kmh S 2.3 mph3.7 kmh 29.02 in982.7 mb - 0.00 in0.0 mm 0.00 in0.0 mm
07:00 PM 39.9°F4.4°C 28.0°F-2.2°C 62% 3.5 mph NNW5.6 kmh NNW 3.5 mph5.6 kmh 29.02 in982.7 mb - 0.00 in0.0 mm 0.00 in0.0 mm
07:15 PM 39.6°F4.2°C 28.4°F-2.0°C 64% 2.3 mph NW3.7 kmh NW 2.3 mph3.7 kmh 29.02 in982.7 mb - 0.00 in0.0 mm 0.00 in0.0 mm
07:30 PM 39.0°F3.9°C 28.2°F-2.1°C 65% 2.3 mph WNW3.7 kmh WNW 2.3 mph3.7 kmh 29.03 in983.1 mb - 0.00 in0.0 mm 0.00 in0.0 mm
07:45 PM 38.5°F3.6°C 28.1°F-2.2°C 66% 2.3 mph NW3.7 kmh NW 3.5 mph5.6 kmh 29.03 in983.1 mb - 0.00 in0.0 mm 0.00 in0.0 mm
08:00 PM 37.9°F3.3°C 28.6°F-1.9°C 69% 1.2 mph NW1.9 kmh NW 1.2 mph1.9 kmh 29.04 in983.4 mb - 0.00 in0.0 mm 0.00 in0.0 mm
08:15 PM 37.6°F3.1°C 28.7°F-1.8°C 70% 2.3 mph N3.7 kmh N 3.5 mph5.6 kmh 29.04 in983.4 mb - 0.00 in0.0 mm 0.00 in0.0 mm
08:30 PM 37.3°F2.9°C 28.8°F-1.8°C 71% 2.3 mph NW3.7 kmh NW 2.3 mph3.7 kmh 29.04 in983.4 mb - 0.00 in0.0 mm 0.00 in0.0 mm
08:45 PM 37.0°F2.8°C 28.5°F-1.9°C 71% 3.5 mph NNW5.6 kmh NNW 3.5 mph5.6 kmh 29.04 in983.4 mb - 0.00 in0.0 mm 0.00 in0.0 mm
09:00 PM 36.9°F2.7°C 29.4°F-1.4°C 74% 2.3 mph W3.7 kmh W 2.3 mph3.7 kmh 29.05 in983.7 mb - 0.00 in0.0 mm 0.00 in0.0 mm
09:15 PM 36.0°F2.2°C 29.8°F-1.2°C 78% Calm Calm 2.3 mph3.7 kmh 29.07 in984.4 mb - 0.00 in0.0 mm 0.00 in0.0 mm
09:30 PM 34.7°F1.5°C 28.9°F-1.7°C 79% Calm Calm -- 29.07 in984.4 mb - 0.00 in0.0 mm 0.00 in0.0 mm
09:45 PM 33.4°F0.8°C 28.8°F-1.8°C 83% Calm Calm 1.2 mph1.9 kmh 29.07 in984.4 mb - 0.00 in0.0 mm 0.00 in0.0 mm
10:00 PM 32.5°F0.3°C 28.2°F-2.1°C 84% Calm Calm -- 29.08 in984.8 mb - 0.00 in0.0 mm 0.00 in0.0 mm
10:15 PM 31.3°F-0.4°C 27.3°F-2.6°C 85% Calm Calm -- 29.09 in985.1 mb - 0.00 in0.0 mm 0.00 in0.0 mm
10:30 PM 30.7°F-0.7°C 26.7°F-2.9°C 85% Calm Calm -- 29.09 in985.1 mb - 0.00 in0.0 mm 0.00 in0.0 mm
10:45 PM 29.8°F-1.2°C 26.1°F-3.3°C 86% Calm Calm -- 29.09 in985.1 mb - 0.00 in0.0 mm 0.00 in0.0 mm
11:00 PM 29.3°F-1.5°C 25.6°F-3.6°C 86% Calm Calm -- 29.09 in985.1 mb - 0.00 in0.0 mm 0.00 in0.0 mm
11:15 PM 28.7°F-1.8°C 25.3°F-3.7°C 87% Calm Calm -- 29.09 in985.1 mb - 0.00 in0.0 mm 0.00 in0.0 mm
11:30 PM 28.2°F-2.1°C 25.6°F-3.6°C 90% Calm Calm -- 29.09 in985.1 mb - 0.00 in0.0 mm 0.00 in0.0 mm
11:45 PM 28.2°F-2.1°C 25.9°F-3.4°C 91% Calm Calm -- 29.09 in985.1 mb - 0.00 in0.0 mm 0.00 in0.0 mm